createdAt,value
2022-12-01T05:19:12.765Z,-1.24
2022-12-01T05:22:15.958Z,-1.35
2022-12-01T05:25:19.296Z,-1.39
2022-12-01T05:28:24.385Z,-1.42
2022-12-01T05:31:26.962Z,-1.43
2022-12-01T05:34:30.301Z,-1.41
2022-12-01T05:37:34.645Z,-1.39
2022-12-01T05:40:38.375Z,-1.38
2022-12-01T05:43:40.905Z,-1.31
2022-12-01T05:46:43.754Z,-1.37
2022-12-01T05:49:46.273Z,-1.42
2022-12-01T05:52:49.259Z,-1.41
2022-12-01T05:55:55.452Z,-1.28
2022-12-01T05:58:58.129Z,-1.27
2022-12-01T06:02:00.688Z,-0.89
2022-12-01T06:05:03.601Z,-0.78
2022-12-01T06:08:06.247Z,-0.31
2022-12-01T06:11:09.179Z,-0.47
2022-12-01T06:14:11.630Z,-0.39
2022-12-01T06:17:14.465Z,-0.49
2022-12-01T06:20:17.052Z,-0.62
2022-12-01T06:23:19.732Z,-0.66
2022-12-01T06:26:22.306Z,-0.66
2022-12-01T06:29:25.281Z,-0.58
2022-12-01T06:32:27.792Z,-0.52
2022-12-01T06:35:32.116Z,-0.68
2022-12-01T06:38:36.091Z,-0.76
2022-12-01T06:41:39.366Z,-0.76
2022-12-01T06:44:41.870Z,-0.73
2022-12-01T06:47:44.646Z,-0.58
2022-12-01T06:50:47.271Z,-0.58
2022-12-01T06:53:54.693Z,-0.62
2022-12-01T06:56:59.764Z,-0.62
2022-12-01T07:00:04.267Z,-0.68
2022-12-01T07:03:08.539Z,-0.67
2022-12-01T07:06:11.348Z,-0.68
2022-12-01T07:09:13.966Z,-0.66
2022-12-01T07:12:16.718Z,-0.58
2022-12-01T07:15:20.139Z,-0.40
2022-12-01T07:18:23.342Z,-0.37
2022-12-01T07:21:26.130Z,-0.35
2022-12-01T07:24:30.712Z,-0.35
2022-12-01T07:27:33.140Z,-0.31
2022-12-01T07:30:36.034Z,-0.21
2022-12-01T07:33:38.743Z,-0.07
2022-12-01T07:36:41.805Z,0.08
2022-12-01T07:39:44.402Z,0.05
2022-12-01T07:42:47.186Z,0.07
2022-12-01T07:45:49.788Z,0.13
2022-12-01T07:48:55.263Z,0.26
2022-12-01T07:51:58.023Z,0.34
2022-12-01T07:55:00.875Z,0.35
2022-12-01T07:58:03.423Z,0.44
2022-12-01T08:01:12.808Z,0.62
2022-12-01T08:04:16.106Z,0.52
2022-12-01T08:07:18.796Z,0.62
2022-12-01T08:10:21.760Z,0.64
2022-12-01T08:13:24.165Z,0.70
2022-12-01T08:16:28.569Z,0.71
2022-12-01T08:19:31.308Z,0.79
2022-12-01T08:22:34.991Z,0.90
2022-12-01T08:25:37.497Z,1.11
2022-12-01T08:28:41.282Z,1.09
2022-12-01T08:31:43.796Z,1.17
2022-12-01T08:34:52.948Z,1.14
2022-12-01T08:37:55.836Z,1.27
2022-12-01T08:41:02.650Z,1.41
2022-12-01T08:44:05.262Z,1.53
2022-12-01T08:47:07.965Z,1.62
2022-12-01T08:50:11.232Z,1.92
2022-12-01T08:53:14.013Z,1.97
2022-12-01T08:56:21.979Z,2.06
2022-12-01T08:59:25.034Z,2.08
2022-12-01T09:02:27.837Z,2.14
2022-12-01T09:05:30.798Z,2.32
2022-12-01T09:08:34.081Z,2.40
2022-12-01T09:11:37.534Z,2.77
2022-12-01T09:14:48.133Z,3.04
2022-12-01T09:17:50.913Z,4.23
2022-12-01T09:20:53.941Z,5.32
2022-12-01T09:23:57.145Z,6.15
2022-12-01T09:27:00.043Z,7.68
2022-12-01T09:30:02.955Z,8.68
2022-12-01T09:33:05.514Z,9.77
2022-12-01T09:36:11.207Z,10.83
2022-12-01T09:39:18.769Z,12.23
2022-12-01T09:42:32.177Z,13.72
2022-12-01T09:45:42.855Z,13.75
2022-12-01T09:48:47.880Z,14.24
2022-12-01T09:51:52.648Z,14.19
2022-12-01T09:54:57.998Z,12.70
2022-12-01T09:58:03.317Z,11.23
2022-12-01T10:01:06.174Z,10.14
2022-12-01T10:04:25.091Z,9.09
2022-12-01T10:07:34.048Z,8.58
2022-12-01T10:10:42.869Z,8.59
2022-12-01T10:13:45.506Z,8.43
2022-12-01T10:17:12.073Z,8.33
2022-12-01T10:20:34.285Z,7.81
2022-12-01T10:23:50.766Z,7.48
2022-12-01T10:27:26.841Z,7.11
2022-12-01T10:30:29.783Z,7.41
2022-12-01T10:34:31.128Z,7.54
2022-12-01T10:37:59.211Z,7.45
2022-12-01T10:41:03.815Z,7.23
2022-12-01T10:44:08.653Z,7.13
2022-12-01T10:47:23.264Z,7.25
2022-12-01T10:50:28.290Z,7.33
2022-12-01T10:53:33.685Z,7.30
2022-12-01T10:56:43.927Z,7.55
2022-12-01T11:00:02.039Z,8.09
2022-12-01T11:03:22.335Z,7.90
2022-12-01T11:06:27.852Z,7.04
2022-12-01T11:09:31.394Z,8.30
2022-12-01T11:12:34.644Z,9.31
2022-12-01T11:15:53.441Z,8.14
2022-12-01T11:19:25.119Z,8.12
2022-12-01T11:22:31.822Z,8.23
2022-12-01T11:25:34.404Z,8.18
2022-12-01T11:28:43.121Z,9.66
2022-12-01T11:31:49.451Z,9.64
2022-12-01T11:35:02.354Z,7.90
2022-12-01T11:38:29.173Z,7.10
2022-12-01T11:41:33.064Z,6.61
2022-12-01T11:44:51.036Z,6.68
2022-12-01T11:48:07.094Z,6.68
2022-12-01T11:51:39.159Z,6.80
2022-12-01T11:54:55.891Z,6.80
2022-12-01T11:58:03.174Z,6.63
2022-12-01T12:01:21.960Z,6.94
2022-12-01T12:04:46.201Z,6.99
2022-12-01T12:08:01.577Z,6.84
2022-12-01T12:11:20.876Z,6.92
2022-12-01T12:14:48.777Z,6.44
2022-12-01T12:17:58.393Z,6.28
2022-12-01T12:21:30.024Z,6.54
2022-12-01T12:24:41.522Z,6.47
2022-12-01T12:28:28.493Z,6.41
2022-12-01T12:31:38.296Z,6.30
2022-12-01T12:34:52.394Z,6.41
2022-12-01T12:38:09.115Z,6.38
2022-12-01T12:41:30.578Z,6.19
2022-12-01T12:45:02.648Z,6.31
2022-12-01T12:48:17.845Z,6.36
2022-12-01T12:51:34.882Z,6.26
2022-12-01T12:54:47.181Z,6.08
2022-12-01T12:57:55.449Z,6.33
2022-12-01T13:01:03.609Z,6.30
2022-12-01T13:04:22.721Z,6.34
2022-12-01T13:07:47.260Z,6.12
2022-12-01T13:11:03.114Z,5.96
2022-12-01T13:14:16.018Z,5.83
2022-12-01T13:17:38.601Z,6.02
2022-12-01T13:20:41.869Z,5.71
2022-12-01T13:23:47.053Z,5.64
2022-12-01T13:27:07.749Z,5.67
2022-12-01T13:30:20.132Z,5.71
2022-12-01T13:33:22.809Z,5.86
2022-12-01T13:39:54.629Z,5.90
2022-12-01T13:43:08.624Z,5.93
2022-12-01T13:46:25.945Z,5.82
2022-12-01T13:49:47.745Z,5.88
2022-12-01T13:52:50.607Z,5.82
2022-12-01T13:55:55.926Z,5.67
2022-12-01T13:58:58.433Z,5.63
2022-12-01T14:02:16.224Z,5.64
2022-12-01T14:05:24.699Z,5.47
2022-12-01T14:08:29.707Z,5.46
2022-12-01T14:11:34.724Z,5.39
2022-12-01T14:14:44.569Z,5.35
2022-12-01T14:17:47.970Z,5.35
2022-12-01T14:20:50.668Z,5.36
2022-12-01T14:24:02.428Z,5.24
2022-12-01T14:27:06.421Z,5.22
2022-12-01T14:30:40.077Z,5.18
2022-12-01T14:33:52.233Z,5.15
2022-12-01T14:37:03.768Z,5.07
2022-12-01T14:40:13.698Z,5.04
2022-12-01T14:43:35.187Z,4.99
2022-12-01T14:46:42.189Z,4.98
2022-12-01T14:49:59.631Z,4.92
2022-12-01T14:53:28.775Z,4.85
2022-12-01T14:56:33.044Z,4.92
2022-12-01T14:59:36.816Z,4.84
2022-12-01T15:02:43.776Z,4.79
2022-12-01T15:05:46.435Z,4.68
2022-12-01T15:12:31.553Z,4.42
2022-12-01T15:15:34.308Z,4.32
2022-12-01T15:18:37.266Z,4.26
2022-12-01T15:21:40.091Z,4.26
2022-12-01T15:24:43.578Z,4.18
2022-12-01T15:27:46.505Z,4.20
2022-12-01T15:30:54.855Z,4.15
2022-12-01T15:33:57.888Z,4.12
2022-12-01T15:37:04.680Z,4.11
2022-12-01T15:40:59.718Z,4.16
2022-12-01T15:43:38.983Z,4.13
2022-12-01T15:46:42.169Z,4.11
2022-12-01T15:49:49.223Z,4.00
2022-12-01T15:52:52.374Z,3.93
2022-12-01T15:55:59.078Z,3.84
2022-12-01T15:59:11.994Z,3.77
2022-12-01T16:02:20.629Z,3.72
2022-12-01T16:05:35.365Z,3.67
2022-12-01T16:08:38.104Z,3.63
2022-12-01T16:11:41.046Z,3.61
2022-12-01T16:15:03.071Z,3.60
2022-12-01T16:18:28.484Z,3.53
2022-12-01T16:21:42.173Z,3.46
2022-12-01T16:24:53.955Z,3.44
2022-12-01T16:27:57.658Z,3.40
2022-12-01T16:31:00.690Z,3.38
2022-12-01T16:34:18.520Z,3.37
2022-12-01T16:37:27.473Z,3.35
2022-12-01T16:40:30.316Z,3.37
2022-12-01T16:43:59.201Z,3.33
2022-12-01T16:47:17.487Z,3.32
2022-12-01T16:50:22.260Z,3.22
2022-12-01T16:53:24.830Z,3.16
2022-12-01T16:56:27.881Z,3.10
